sensor_id;sensor_type;location;lat;lon;timestamp;P1;durP1;ratioP1;P2;durP2;ratioP2
46561;SDS011;32289;42.688;23.330;2022-11-14T00:02:47;44.67;;;19.35;;
46561;SDS011;32289;42.688;23.330;2022-11-14T00:06:28;48.40;;;20.83;;
46561;SDS011;32289;42.688;23.330;2022-11-14T00:10:09;52.15;;;21.08;;
46561;SDS011;32289;42.688;23.330;2022-11-14T00:13:50;41.88;;;18.35;;
46561;SDS011;32289;42.688;23.330;2022-11-14T00:17:30;42.85;;;17.42;;
46561;SDS011;32289;42.688;23.330;2022-11-14T00:21:11;38.83;;;18.35;;
46561;SDS011;32289;42.688;23.330;2022-11-14T00:24:52;41.28;;;17.75;;
46561;SDS011;32289;42.688;23.330;2022-11-14T00:28:32;46.90;;;21.00;;
46561;SDS011;32289;42.688;23.330;2022-11-14T00:32:13;33.60;;;17.67;;
46561;SDS011;32289;42.688;23.330;2022-11-14T00:35:54;48.10;;;18.98;;
46561;SDS011;32289;42.688;23.330;2022-11-14T00:39:35;46.13;;;19.58;;
46561;SDS011;32289;42.688;23.330;2022-11-14T00:43:17;44.58;;;18.77;;
46561;SDS011;32289;42.688;23.330;2022-11-14T00:46:58;50.65;;;22.10;;
46561;SDS011;32289;42.688;23.330;2022-11-14T00:50:39;50.78;;;20.52;;
46561;SDS011;32289;42.688;23.330;2022-11-14T00:54:20;39.22;;;19.35;;
46561;SDS011;32289;42.688;23.330;2022-11-14T00:58:01;35.17;;;18.17;;
46561;SDS011;32289;42.688;23.330;2022-11-14T01:01:41;53.67;;;21.23;;
46561;SDS011;32289;42.688;23.330;2022-11-14T01:05:25;44.70;;;18.55;;
46561;SDS011;32289;42.688;23.330;2022-11-14T01:09:07;59.90;;;20.17;;
46561;SDS011;32289;42.688;23.330;2022-11-14T01:12:48;51.25;;;20.55;;
46561;SDS011;32289;42.688;23.330;2022-11-14T01:16:29;50.97;;;19.25;;
46561;SDS011;32289;42.688;23.330;2022-11-14T01:20:09;45.05;;;22.13;;
46561;SDS011;32289;42.688;23.330;2022-11-14T01:23:50;46.95;;;21.52;;
46561;SDS011;32289;42.688;23.330;2022-11-14T01:27:31;35.00;;;16.88;;
46561;SDS011;32289;42.688;23.330;2022-11-14T01:31:16;40.75;;;18.17;;
46561;SDS011;32289;42.688;23.330;2022-11-14T01:34:58;54.85;;;20.58;;
46561;SDS011;32289;42.688;23.330;2022-11-14T01:38:40;43.50;;;17.48;;
46561;SDS011;32289;42.688;23.330;2022-11-14T01:42:21;35.70;;;18.08;;
46561;SDS011;32289;42.688;23.330;2022-11-14T01:49:58;39.20;;;15.90;;
46561;SDS011;32289;42.688;23.330;2022-11-14T01:53:41;41.30;;;16.30;;
46561;SDS011;32289;42.688;23.330;2022-11-14T01:57:27;44.85;;;17.80;;
46561;SDS011;32289;42.688;23.330;2022-11-14T02:01:12;39.05;;;16.40;;
46561;SDS011;32289;42.688;23.330;2022-11-14T02:04:55;38.53;;;17.45;;
46561;SDS011;32289;42.688;23.330;2022-11-14T02:08:40;34.25;;;15.23;;
46561;SDS011;32289;42.688;23.330;2022-11-14T02:12:21;46.05;;;17.25;;
46561;SDS011;32289;42.688;23.330;2022-11-14T02:16:03;37.38;;;15.93;;
46561;SDS011;32289;42.688;23.330;2022-11-14T02:23:33;33.28;;;15.73;;
46561;SDS011;32289;42.688;23.330;2022-11-14T02:27:14;44.63;;;14.30;;
46561;SDS011;32289;42.688;23.330;2022-11-14T02:30:55;31.92;;;16.13;;
46561;SDS011;32289;42.688;23.330;2022-11-14T02:34:37;32.10;;;16.05;;
46561;SDS011;32289;42.688;23.330;2022-11-14T02:38:17;35.63;;;14.45;;
46561;SDS011;32289;42.688;23.330;2022-11-14T02:41:58;34.15;;;14.57;;
46561;SDS011;32289;42.688;23.330;2022-11-14T02:45:39;34.13;;;13.68;;
46561;SDS011;32289;42.688;23.330;2022-11-14T02:49:19;25.80;;;12.20;;
46561;SDS011;32289;42.688;23.330;2022-11-14T02:53:00;39.33;;;16.35;;
46561;SDS011;32289;42.688;23.330;2022-11-14T02:56:41;34.05;;;14.48;;
46561;SDS011;32289;42.688;23.330;2022-11-14T03:00:21;37.15;;;14.63;;
46561;SDS011;32289;42.688;23.330;2022-11-14T03:04:02;32.15;;;13.75;;
46561;SDS011;32289;42.688;23.330;2022-11-14T03:07:43;29.88;;;13.85;;
46561;SDS011;32289;42.688;23.330;2022-11-14T03:11:24;42.33;;;15.20;;
46561;SDS011;32289;42.688;23.330;2022-11-14T03:15:05;32.80;;;14.60;;
46561;SDS011;32289;42.688;23.330;2022-11-14T03:18:46;31.42;;;12.85;;
46561;SDS011;32289;42.688;23.330;2022-11-14T03:22:27;33.10;;;14.35;;
46561;SDS011;32289;42.688;23.330;2022-11-14T03:26:09;31.80;;;15.15;;
46561;SDS011;32289;42.688;23.330;2022-11-14T03:29:51;40.78;;;14.63;;
46561;SDS011;32289;42.688;23.330;2022-11-14T03:33:32;32.85;;;14.40;;
46561;SDS011;32289;42.688;23.330;2022-11-14T03:37:13;43.90;;;16.48;;
46561;SDS011;32289;42.688;23.330;2022-11-14T03:40:53;40.75;;;16.00;;
46561;SDS011;32289;42.688;23.330;2022-11-14T03:44:36;46.17;;;15.45;;
46561;SDS011;32289;42.688;23.330;2022-11-14T03:48:17;36.85;;;15.02;;
46561;SDS011;32289;42.688;23.330;2022-11-14T03:51:57;39.53;;;17.50;;
46561;SDS011;32289;42.688;23.330;2022-11-14T03:55:38;33.30;;;14.88;;
46561;SDS011;32289;42.688;23.330;2022-11-14T03:59:19;46.75;;;17.20;;
46561;SDS011;32289;42.688;23.330;2022-11-14T04:03:00;35.03;;;14.27;;
46561;SDS011;32289;42.688;23.330;2022-11-14T04:06:40;37.55;;;15.70;;
46561;SDS011;32289;42.688;23.330;2022-11-14T04:10:21;45.90;;;16.60;;
46561;SDS011;32289;42.688;23.330;2022-11-14T04:14:02;39.72;;;14.60;;
46561;SDS011;32289;42.688;23.330;2022-11-14T04:17:43;43.25;;;15.27;;
46561;SDS011;32289;42.688;23.330;2022-11-14T04:21:24;38.72;;;15.05;;
46561;SDS011;32289;42.688;23.330;2022-11-14T04:25:05;37.75;;;14.00;;
46561;SDS011;32289;42.688;23.330;2022-11-14T04:28:47;34.47;;;12.35;;
46561;SDS011;32289;42.688;23.330;2022-11-14T04:32:27;44.65;;;13.60;;
46561;SDS011;32289;42.688;23.330;2022-11-14T04:36:08;35.35;;;14.88;;
46561;SDS011;32289;42.688;23.330;2022-11-14T04:39:49;32.15;;;14.13;;
46561;SDS011;32289;42.688;23.330;2022-11-14T04:43:30;32.90;;;14.10;;
46561;SDS011;32289;42.688;23.330;2022-11-14T04:47:12;31.70;;;14.05;;
46561;SDS011;32289;42.688;23.330;2022-11-14T04:50:52;28.65;;;13.00;;
46561;SDS011;32289;42.688;23.330;2022-11-14T04:54:33;35.70;;;14.23;;
46561;SDS011;32289;42.688;23.330;2022-11-14T04:58:14;40.38;;;13.63;;
46561;SDS011;32289;42.688;23.330;2022-11-14T05:01:54;31.35;;;13.00;;
46561;SDS011;32289;42.688;23.330;2022-11-14T05:05:35;32.03;;;12.35;;
46561;SDS011;32289;42.688;23.330;2022-11-14T05:09:16;34.40;;;15.43;;
46561;SDS011;32289;42.688;23.330;2022-11-14T05:12:56;34.85;;;14.98;;
46561;SDS011;32289;42.688;23.330;2022-11-14T05:16:37;34.88;;;14.35;;
46561;SDS011;32289;42.688;23.330;2022-11-14T05:20:18;38.20;;;14.82;;
46561;SDS011;32289;42.688;23.330;2022-11-14T05:23:58;35.67;;;15.23;;
46561;SDS011;32289;42.688;23.330;2022-11-14T05:27:39;31.08;;;13.27;;
46561;SDS011;32289;42.688;23.330;2022-11-14T05:31:20;34.08;;;14.07;;
46561;SDS011;32289;42.688;23.330;2022-11-14T05:35:00;41.33;;;14.25;;
46561;SDS011;32289;42.688;23.330;2022-11-14T05:38:41;32.42;;;13.68;;
46561;SDS011;32289;42.688;23.330;2022-11-14T05:42:23;35.83;;;14.15;;
46561;SDS011;32289;42.688;23.330;2022-11-14T05:46:05;27.27;;;11.70;;
46561;SDS011;32289;42.688;23.330;2022-11-14T05:49:48;28.45;;;11.98;;
46561;SDS011;32289;42.688;23.330;2022-11-14T05:53:29;38.53;;;13.10;;
46561;SDS011;32289;42.688;23.330;2022-11-14T05:57:12;30.25;;;10.57;;
46561;SDS011;32289;42.688;23.330;2022-11-14T06:01:00;24.05;;;11.60;;
46561;SDS011;32289;42.688;23.330;2022-11-14T06:04:43;24.67;;;10.95;;
46561;SDS011;32289;42.688;23.330;2022-11-14T06:08:23;25.10;;;12.20;;
46561;SDS011;32289;42.688;23.330;2022-11-14T06:12:04;21.15;;;8.55;;
46561;SDS011;32289;42.688;23.330;2022-11-14T06:15:46;24.88;;;9.05;;
46561;SDS011;32289;42.688;23.330;2022-11-14T06:19:27;17.83;;;8.15;;
46561;SDS011;32289;42.688;23.330;2022-11-14T06:23:08;12.48;;;6.80;;
46561;SDS011;32289;42.688;23.330;2022-11-14T06:26:48;19.15;;;8.30;;
46561;SDS011;32289;42.688;23.330;2022-11-14T06:30:29;14.10;;;6.38;;
46561;SDS011;32289;42.688;23.330;2022-11-14T06:34:10;17.08;;;7.45;;
46561;SDS011;32289;42.688;23.330;2022-11-14T06:37:52;15.55;;;7.85;;
46561;SDS011;32289;42.688;23.330;2022-11-14T06:41:33;19.40;;;7.80;;
46561;SDS011;32289;42.688;23.330;2022-11-14T06:45:13;23.30;;;8.02;;
46561;SDS011;32289;42.688;23.330;2022-11-14T06:48:54;15.30;;;8.70;;
46561;SDS011;32289;42.688;23.330;2022-11-14T06:52:35;20.30;;;9.77;;
46561;SDS011;32289;42.688;23.330;2022-11-14T06:56:16;16.13;;;8.85;;
46561;SDS011;32289;42.688;23.330;2022-11-14T06:59:59;20.17;;;9.98;;
46561;SDS011;32289;42.688;23.330;2022-11-14T07:03:40;21.42;;;8.57;;
46561;SDS011;32289;42.688;23.330;2022-11-14T07:07:22;15.23;;;7.95;;
46561;SDS011;32289;42.688;23.330;2022-11-14T07:11:04;20.50;;;7.47;;
46561;SDS011;32289;42.688;23.330;2022-11-14T07:15:01;23.73;;;8.05;;
46561;SDS011;32289;42.688;23.330;2022-11-14T07:18:42;21.40;;;9.65;;
46561;SDS011;32289;42.688;23.330;2022-11-14T07:22:23;19.13;;;8.45;;
46561;SDS011;32289;42.688;23.330;2022-11-14T07:26:05;19.83;;;9.13;;
46561;SDS011;32289;42.688;23.330;2022-11-14T07:29:46;20.92;;;7.53;;
46561;SDS011;32289;42.688;23.330;2022-11-14T07:33:28;25.23;;;9.90;;
46561;SDS011;32289;42.688;23.330;2022-11-14T07:37:09;23.98;;;10.98;;
46561;SDS011;32289;42.688;23.330;2022-11-14T07:44:37;29.33;;;11.23;;
46561;SDS011;32289;42.688;23.330;2022-11-14T07:48:18;22.52;;;9.55;;
46561;SDS011;32289;42.688;23.330;2022-11-14T07:52:00;25.02;;;9.48;;
46561;SDS011;32289;42.688;23.330;2022-11-14T07:55:41;21.27;;;9.60;;
46561;SDS011;32289;42.688;23.330;2022-11-14T07:59:22;21.48;;;8.95;;
46561;SDS011;32289;42.688;23.330;2022-11-14T08:03:05;26.88;;;11.63;;
46561;SDS011;32289;42.688;23.330;2022-11-14T08:06:47;22.50;;;10.57;;
46561;SDS011;32289;42.688;23.330;2022-11-14T08:10:27;26.05;;;11.60;;
46561;SDS011;32289;42.688;23.330;2022-11-14T08:14:08;25.90;;;11.30;;
46561;SDS011;32289;42.688;23.330;2022-11-14T08:17:49;27.90;;;10.40;;
46561;SDS011;32289;42.688;23.330;2022-11-14T08:21:30;27.80;;;11.15;;
46561;SDS011;32289;42.688;23.330;2022-11-14T08:25:10;26.90;;;12.07;;
46561;SDS011;32289;42.688;23.330;2022-11-14T08:28:52;28.85;;;11.48;;
46561;SDS011;32289;42.688;23.330;2022-11-14T08:32:33;24.83;;;12.02;;
46561;SDS011;32289;42.688;23.330;2022-11-14T08:36:14;25.23;;;11.70;;
46561;SDS011;32289;42.688;23.330;2022-11-14T08:39:55;26.15;;;12.75;;
46561;SDS011;32289;42.688;23.330;2022-11-14T08:43:36;27.08;;;11.35;;
46561;SDS011;32289;42.688;23.330;2022-11-14T08:47:16;25.65;;;10.38;;
46561;SDS011;32289;42.688;23.330;2022-11-14T08:51:00;28.92;;;12.27;;
46561;SDS011;32289;42.688;23.330;2022-11-14T08:54:42;24.38;;;12.20;;
46561;SDS011;32289;42.688;23.330;2022-11-14T08:58:25;32.08;;;13.52;;
46561;SDS011;32289;42.688;23.330;2022-11-14T09:02:11;30.80;;;12.77;;
46561;SDS011;32289;42.688;23.330;2022-11-14T09:05:52;33.53;;;15.40;;
46561;SDS011;32289;42.688;23.330;2022-11-14T09:09:33;24.75;;;13.00;;
46561;SDS011;32289;42.688;23.330;2022-11-14T09:13:14;28.40;;;14.18;;
46561;SDS011;32289;42.688;23.330;2022-11-14T09:16:55;34.25;;;15.70;;
46561;SDS011;32289;42.688;23.330;2022-11-14T09:20:36;31.73;;;14.82;;
46561;SDS011;32289;42.688;23.330;2022-11-14T09:24:17;34.97;;;14.00;;
46561;SDS011;32289;42.688;23.330;2022-11-14T09:27:57;35.25;;;15.20;;
46561;SDS011;32289;42.688;23.330;2022-11-14T09:31:44;38.33;;;16.55;;
46561;SDS011;32289;42.688;23.330;2022-11-14T09:35:25;39.17;;;15.52;;
46561;SDS011;32289;42.688;23.330;2022-11-14T09:39:06;38.35;;;16.83;;
46561;SDS011;32289;42.688;23.330;2022-11-14T09:46:45;35.25;;;16.67;;
46561;SDS011;32289;42.688;23.330;2022-11-14T09:50:36;34.15;;;15.85;;
46561;SDS011;32289;42.688;23.330;2022-11-14T09:54:22;43.05;;;18.55;;
46561;SDS011;32289;42.688;23.330;2022-11-14T09:58:07;32.92;;;16.55;;
46561;SDS011;32289;42.688;23.330;2022-11-14T10:02:58;42.83;;;17.65;;
46561;SDS011;32289;42.688;23.330;2022-11-14T10:14:17;36.55;;;17.17;;
46561;SDS011;32289;42.688;23.330;2022-11-14T10:18:23;37.63;;;17.73;;
46561;SDS011;32289;42.688;23.330;2022-11-14T10:22:26;37.42;;;17.95;;
46561;SDS011;32289;42.688;23.330;2022-11-14T10:26:30;33.67;;;18.20;;
46561;SDS011;32289;42.688;23.330;2022-11-14T10:30:15;39.63;;;17.48;;
46561;SDS011;32289;42.688;23.330;2022-11-14T10:34:01;42.45;;;18.40;;
46561;SDS011;32289;42.688;23.330;2022-11-14T10:41:36;33.10;;;16.35;;
46561;SDS011;32289;42.688;23.330;2022-11-14T10:45:28;34.60;;;17.70;;
46561;SDS011;32289;42.688;23.330;2022-11-14T10:49:20;36.03;;;17.23;;
46561;SDS011;32289;42.688;23.330;2022-11-14T10:53:03;34.65;;;15.90;;
46561;SDS011;32289;42.688;23.330;2022-11-14T10:56:53;36.70;;;16.65;;
46561;SDS011;32289;42.688;23.330;2022-11-14T11:00:34;35.55;;;17.50;;
46561;SDS011;32289;42.688;23.330;2022-11-14T11:08:01;32.60;;;16.02;;
46561;SDS011;32289;42.688;23.330;2022-11-14T11:12:13;32.63;;;16.85;;
46561;SDS011;32289;42.688;23.330;2022-11-14T11:15:58;36.50;;;18.63;;
46561;SDS011;32289;42.688;23.330;2022-11-14T11:19:40;39.13;;;19.17;;
46561;SDS011;32289;42.688;23.330;2022-11-14T11:23:23;40.65;;;20.75;;
46561;SDS011;32289;42.688;23.330;2022-11-14T11:31:05;40.95;;;20.55;;
46561;SDS011;32289;42.688;23.330;2022-11-14T11:34:48;42.15;;;21.25;;
46561;SDS011;32289;42.688;23.330;2022-11-14T11:38:30;39.40;;;19.80;;
46561;SDS011;32289;42.688;23.330;2022-11-14T11:42:14;38.13;;;19.00;;
46561;SDS011;32289;42.688;23.330;2022-11-14T11:46:00;40.00;;;21.58;;
46561;SDS011;32289;42.688;23.330;2022-11-14T11:49:46;45.53;;;21.27;;
46561;SDS011;32289;42.688;23.330;2022-11-14T11:53:38;42.03;;;21.13;;
46561;SDS011;32289;42.688;23.330;2022-11-14T11:57:27;46.70;;;20.10;;
46561;SDS011;32289;42.688;23.330;2022-11-14T12:01:14;38.20;;;19.15;;
46561;SDS011;32289;42.688;23.330;2022-11-14T12:04:55;41.38;;;20.17;;
46561;SDS011;32289;42.688;23.330;2022-11-14T12:33:00;40.45;;;20.77;;
46561;SDS011;32289;42.688;23.330;2022-11-14T12:36:48;46.22;;;19.45;;
46561;SDS011;32289;42.688;23.330;2022-11-14T12:40:30;48.80;;;21.27;;
46561;SDS011;32289;42.688;23.330;2022-11-14T12:48:13;45.15;;;20.05;;
46561;SDS011;32289;42.688;23.330;2022-11-14T12:52:01;40.38;;;19.42;;
46561;SDS011;32289;42.688;23.330;2022-11-14T12:59:27;45.47;;;19.83;;
46561;SDS011;32289;42.688;23.330;2022-11-14T13:15:32;47.47;;;20.73;;
46561;SDS011;32289;42.688;23.330;2022-11-14T13:19:33;43.28;;;19.70;;
46561;SDS011;32289;42.688;23.330;2022-11-14T13:27:30;43.95;;;20.10;;
46561;SDS011;32289;42.688;23.330;2022-11-14T13:35:02;48.50;;;21.30;;
46561;SDS011;32289;42.688;23.330;2022-11-14T13:54:50;43.80;;;20.10;;
46561;SDS011;32289;42.688;23.330;2022-11-14T14:06:49;52.33;;;21.13;;
46561;SDS011;32289;42.688;23.330;2022-11-14T14:19:07;51.40;;;20.73;;
46561;SDS011;32289;42.688;23.330;2022-11-14T14:23:07;44.10;;;19.92;;
46561;SDS011;32289;42.688;23.330;2022-11-14T14:26:59;44.63;;;21.73;;
46561;SDS011;32289;42.688;23.330;2022-11-14T14:31:31;46.97;;;22.80;;
46561;SDS011;32289;42.688;23.330;2022-11-14T14:35:21;59.15;;;23.45;;
46561;SDS011;32289;42.688;23.330;2022-11-14T14:42:59;57.72;;;23.10;;
46561;SDS011;32289;42.688;23.330;2022-11-14T14:46:41;47.28;;;22.38;;
46561;SDS011;32289;42.688;23.330;2022-11-14T14:50:23;50.10;;;22.92;;
46561;SDS011;32289;42.688;23.330;2022-11-14T14:54:17;48.28;;;22.55;;
46561;SDS011;32289;42.688;23.330;2022-11-14T15:02:17;57.55;;;24.10;;
46561;SDS011;32289;42.688;23.330;2022-11-14T15:06:04;53.97;;;24.30;;
46561;SDS011;32289;42.688;23.330;2022-11-14T15:09:57;60.53;;;24.77;;
46561;SDS011;32289;42.688;23.330;2022-11-14T15:13:40;54.03;;;23.02;;
46561;SDS011;32289;42.688;23.330;2022-11-14T15:17:22;41.45;;;19.55;;
46561;SDS011;32289;42.688;23.330;2022-11-14T15:25:15;48.08;;;22.42;;
46561;SDS011;32289;42.688;23.330;2022-11-14T15:29:16;56.50;;;22.63;;
46561;SDS011;32289;42.688;23.330;2022-11-14T15:33:03;52.50;;;19.27;;
46561;SDS011;32289;42.688;23.330;2022-11-14T15:37:05;49.45;;;20.58;;
46561;SDS011;32289;42.688;23.330;2022-11-14T15:44:50;54.22;;;22.92;;
46561;SDS011;32289;42.688;23.330;2022-11-14T15:48:32;64.90;;;23.65;;
46561;SDS011;32289;42.688;23.330;2022-11-14T15:52:17;61.05;;;20.20;;
46561;SDS011;32289;42.688;23.330;2022-11-14T15:56:21;54.63;;;22.95;;
46561;SDS011;32289;42.688;23.330;2022-11-14T16:00:03;55.10;;;23.40;;
46561;SDS011;32289;42.688;23.330;2022-11-14T16:03:44;50.88;;;20.88;;
46561;SDS011;32289;42.688;23.330;2022-11-14T16:07:30;49.55;;;21.52;;
46561;SDS011;32289;42.688;23.330;2022-11-14T16:11:11;54.78;;;19.48;;
46561;SDS011;32289;42.688;23.330;2022-11-14T16:14:52;44.97;;;20.40;;
46561;SDS011;32289;42.688;23.330;2022-11-14T16:18:33;60.03;;;21.08;;
46561;SDS011;32289;42.688;23.330;2022-11-14T16:22:15;68.47;;;22.98;;
46561;SDS011;32289;42.688;23.330;2022-11-14T16:25:57;54.72;;;21.15;;
46561;SDS011;32289;42.688;23.330;2022-11-14T16:29:37;57.85;;;23.00;;
46561;SDS011;32289;42.688;23.330;2022-11-14T16:33:18;59.90;;;22.65;;
46561;SDS011;32289;42.688;23.330;2022-11-14T16:37:00;67.70;;;23.90;;
46561;SDS011;32289;42.688;23.330;2022-11-14T16:40:42;58.88;;;23.38;;
46561;SDS011;32289;42.688;23.330;2022-11-14T16:44:23;62.70;;;24.45;;
46561;SDS011;32289;42.688;23.330;2022-11-14T16:48:04;54.25;;;22.25;;
46561;SDS011;32289;42.688;23.330;2022-11-14T16:51:48;45.88;;;21.88;;
46561;SDS011;32289;42.688;23.330;2022-11-14T16:55:30;66.90;;;24.67;;
46561;SDS011;32289;42.688;23.330;2022-11-14T16:59:11;55.22;;;22.30;;
46561;SDS011;32289;42.688;23.330;2022-11-14T17:02:51;73.78;;;27.05;;
46561;SDS011;32289;42.688;23.330;2022-11-14T17:06:32;54.63;;;21.73;;
46561;SDS011;32289;42.688;23.330;2022-11-14T17:10:13;47.28;;;21.42;;
46561;SDS011;32289;42.688;23.330;2022-11-14T17:13:54;63.60;;;23.63;;
46561;SDS011;32289;42.688;23.330;2022-11-14T17:17:35;68.35;;;23.83;;
46561;SDS011;32289;42.688;23.330;2022-11-14T17:21:16;61.30;;;23.58;;
46561;SDS011;32289;42.688;23.330;2022-11-14T17:24:57;53.92;;;23.77;;
46561;SDS011;32289;42.688;23.330;2022-11-14T17:28:37;63.55;;;22.15;;
46561;SDS011;32289;42.688;23.330;2022-11-14T17:32:19;61.70;;;22.95;;
46561;SDS011;32289;42.688;23.330;2022-11-14T17:36:04;76.43;;;27.20;;
46561;SDS011;32289;42.688;23.330;2022-11-14T17:39:46;64.25;;;23.83;;
46561;SDS011;32289;42.688;23.330;2022-11-14T17:43:26;66.53;;;25.05;;
46561;SDS011;32289;42.688;23.330;2022-11-14T17:47:07;50.28;;;22.10;;
46561;SDS011;32289;42.688;23.330;2022-11-14T17:50:48;69.45;;;22.15;;
46561;SDS011;32289;42.688;23.330;2022-11-14T17:54:29;46.70;;;20.15;;
46561;SDS011;32289;42.688;23.330;2022-11-14T17:58:10;60.63;;;22.15;;
46561;SDS011;32289;42.688;23.330;2022-11-14T18:01:51;56.42;;;22.98;;
46561;SDS011;32289;42.688;23.330;2022-11-14T18:05:34;56.90;;;24.23;;
46561;SDS011;32289;42.688;23.330;2022-11-14T18:09:15;62.38;;;25.75;;
46561;SDS011;32289;42.688;23.330;2022-11-14T18:12:56;60.67;;;26.55;;
46561;SDS011;32289;42.688;23.330;2022-11-14T18:16:37;50.08;;;21.30;;
46561;SDS011;32289;42.688;23.330;2022-11-14T18:20:17;49.70;;;23.88;;
46561;SDS011;32289;42.688;23.330;2022-11-14T18:23:58;62.30;;;26.55;;
46561;SDS011;32289;42.688;23.330;2022-11-14T18:27:39;47.83;;;22.52;;
46561;SDS011;32289;42.688;23.330;2022-11-14T18:31:20;54.00;;;23.65;;
46561;SDS011;32289;42.688;23.330;2022-11-14T18:35:01;56.33;;;22.70;;
46561;SDS011;32289;42.688;23.330;2022-11-14T18:38:42;73.63;;;27.85;;
46561;SDS011;32289;42.688;23.330;2022-11-14T18:42:23;61.22;;;25.27;;
46561;SDS011;32289;42.688;23.330;2022-11-14T18:46:11;59.63;;;23.80;;
46561;SDS011;32289;42.688;23.330;2022-11-14T18:49:54;56.20;;;23.77;;
46561;SDS011;32289;42.688;23.330;2022-11-14T18:53:35;56.60;;;22.08;;
46561;SDS011;32289;42.688;23.330;2022-11-14T18:57:15;61.00;;;24.92;;
46561;SDS011;32289;42.688;23.330;2022-11-14T19:00:56;99.00;;;32.08;;
46561;SDS011;32289;42.688;23.330;2022-11-14T19:04:37;59.85;;;24.10;;
46561;SDS011;32289;42.688;23.330;2022-11-14T19:08:17;48.28;;;22.10;;
46561;SDS011;32289;42.688;23.330;2022-11-14T19:11:58;57.00;;;22.10;;
46561;SDS011;32289;42.688;23.330;2022-11-14T19:16:00;49.65;;;23.35;;
46561;SDS011;32289;42.688;23.330;2022-11-14T19:19:46;54.97;;;25.38;;
46561;SDS011;32289;42.688;23.330;2022-11-14T19:23:28;54.33;;;22.92;;
46561;SDS011;32289;42.688;23.330;2022-11-14T19:27:09;53.25;;;22.80;;
46561;SDS011;32289;42.688;23.330;2022-11-14T19:30:50;44.13;;;20.27;;
46561;SDS011;32289;42.688;23.330;2022-11-14T19:34:31;49.03;;;21.95;;
46561;SDS011;32289;42.688;23.330;2022-11-14T19:38:12;48.25;;;20.10;;
46561;SDS011;32289;42.688;23.330;2022-11-14T19:41:53;48.08;;;20.45;;
46561;SDS011;32289;42.688;23.330;2022-11-14T19:45:33;53.03;;;24.25;;
46561;SDS011;32289;42.688;23.330;2022-11-14T19:49:14;65.80;;;25.17;;
46561;SDS011;32289;42.688;23.330;2022-11-14T19:52:55;51.22;;;24.02;;
46561;SDS011;32289;42.688;23.330;2022-11-14T19:56:36;70.72;;;28.23;;
46561;SDS011;32289;42.688;23.330;2022-11-14T20:00:17;67.22;;;27.52;;
46561;SDS011;32289;42.688;23.330;2022-11-14T20:03:58;55.10;;;24.23;;
46561;SDS011;32289;42.688;23.330;2022-11-14T20:07:41;57.97;;;24.77;;
46561;SDS011;32289;42.688;23.330;2022-11-14T20:11:22;58.80;;;23.13;;
46561;SDS011;32289;42.688;23.330;2022-11-14T20:15:05;59.97;;;26.17;;
46561;SDS011;32289;42.688;23.330;2022-11-14T20:18:47;64.53;;;25.45;;
46561;SDS011;32289;42.688;23.330;2022-11-14T20:22:28;65.30;;;25.88;;
46561;SDS011;32289;42.688;23.330;2022-11-14T20:26:09;63.05;;;26.05;;
46561;SDS011;32289;42.688;23.330;2022-11-14T20:29:51;66.45;;;28.23;;
46561;SDS011;32289;42.688;23.330;2022-11-14T20:33:34;54.55;;;26.27;;
46561;SDS011;32289;42.688;23.330;2022-11-14T20:37:16;67.43;;;26.35;;
46561;SDS011;32289;42.688;23.330;2022-11-14T20:40:56;75.00;;;26.50;;
46561;SDS011;32289;42.688;23.330;2022-11-14T20:44:40;60.97;;;26.63;;
46561;SDS011;32289;42.688;23.330;2022-11-14T20:48:20;62.38;;;26.13;;
46561;SDS011;32289;42.688;23.330;2022-11-14T20:52:01;59.65;;;26.02;;
46561;SDS011;32289;42.688;23.330;2022-11-14T20:55:50;65.15;;;26.90;;
46561;SDS011;32289;42.688;23.330;2022-11-14T20:59:32;75.75;;;31.70;;
46561;SDS011;32289;42.688;23.330;2022-11-14T21:03:13;57.92;;;27.65;;
46561;SDS011;32289;42.688;23.330;2022-11-14T21:06:53;57.92;;;26.75;;
46561;SDS011;32289;42.688;23.330;2022-11-14T21:10:38;65.43;;;28.75;;
46561;SDS011;32289;42.688;23.330;2022-11-14T21:14:26;85.50;;;30.67;;
46561;SDS011;32289;42.688;23.330;2022-11-14T21:18:06;65.97;;;31.75;;
46561;SDS011;32289;42.688;23.330;2022-11-14T21:21:47;61.17;;;28.15;;
46561;SDS011;32289;42.688;23.330;2022-11-14T21:25:28;62.25;;;29.02;;
46561;SDS011;32289;42.688;23.330;2022-11-14T21:29:09;63.63;;;28.35;;
46561;SDS011;32289;42.688;23.330;2022-11-14T21:32:52;66.60;;;28.52;;
46561;SDS011;32289;42.688;23.330;2022-11-14T21:36:33;66.97;;;27.75;;
46561;SDS011;32289;42.688;23.330;2022-11-14T21:40:14;80.95;;;28.83;;
46561;SDS011;32289;42.688;23.330;2022-11-14T21:43:55;75.72;;;29.95;;
46561;SDS011;32289;42.688;23.330;2022-11-14T21:47:38;67.18;;;30.02;;
46561;SDS011;32289;42.688;23.330;2022-11-14T21:51:20;70.07;;;29.83;;
46561;SDS011;32289;42.688;23.330;2022-11-14T21:55:02;74.60;;;31.48;;
46561;SDS011;32289;42.688;23.330;2022-11-14T21:58:43;71.53;;;31.95;;
46561;SDS011;32289;42.688;23.330;2022-11-14T22:02:24;70.97;;;31.38;;
46561;SDS011;32289;42.688;23.330;2022-11-14T22:06:24;78.50;;;33.75;;
46561;SDS011;32289;42.688;23.330;2022-11-14T22:10:06;78.10;;;33.67;;
46561;SDS011;32289;42.688;23.330;2022-11-14T22:13:47;80.78;;;33.92;;
46561;SDS011;32289;42.688;23.330;2022-11-14T22:17:28;93.13;;;34.90;;
46561;SDS011;32289;42.688;23.330;2022-11-14T22:21:09;78.10;;;35.83;;
46561;SDS011;32289;42.688;23.330;2022-11-14T22:24:49;77.43;;;34.65;;
46561;SDS011;32289;42.688;23.330;2022-11-14T22:28:30;70.25;;;33.10;;
46561;SDS011;32289;42.688;23.330;2022-11-14T22:32:11;74.50;;;35.42;;
46561;SDS011;32289;42.688;23.330;2022-11-14T22:35:51;69.15;;;33.72;;
46561;SDS011;32289;42.688;23.330;2022-11-14T22:39:32;68.93;;;32.17;;
46561;SDS011;32289;42.688;23.330;2022-11-14T22:43:13;69.53;;;33.40;;
46561;SDS011;32289;42.688;23.330;2022-11-14T22:46:53;77.00;;;35.67;;
46561;SDS011;32289;42.688;23.330;2022-11-14T22:50:34;81.07;;;33.22;;
46561;SDS011;32289;42.688;23.330;2022-11-14T22:54:14;79.80;;;34.13;;
46561;SDS011;32289;42.688;23.330;2022-11-14T22:57:57;90.35;;;37.63;;
46561;SDS011;32289;42.688;23.330;2022-11-14T23:01:37;74.63;;;36.45;;
46561;SDS011;32289;42.688;23.330;2022-11-14T23:05:18;79.03;;;34.80;;
46561;SDS011;32289;42.688;23.330;2022-11-14T23:08:59;81.13;;;35.67;;
46561;SDS011;32289;42.688;23.330;2022-11-14T23:12:41;86.18;;;35.97;;
46561;SDS011;32289;42.688;23.330;2022-11-14T23:16:22;81.15;;;34.55;;
46561;SDS011;32289;42.688;23.330;2022-11-14T23:20:07;90.18;;;35.60;;
46561;SDS011;32289;42.688;23.330;2022-11-14T23:23:52;77.20;;;35.10;;
46561;SDS011;32289;42.688;23.330;2022-11-14T23:27:40;81.93;;;36.83;;
46561;SDS011;32289;42.688;23.330;2022-11-14T23:31:20;93.05;;;38.08;;
46561;SDS011;32289;42.688;23.330;2022-11-14T23:35:02;93.97;;;36.70;;
46561;SDS011;32289;42.688;23.330;2022-11-14T23:38:43;67.88;;;36.42;;
46561;SDS011;32289;42.688;23.330;2022-11-14T23:42:23;82.15;;;38.13;;
46561;SDS011;32289;42.688;23.330;2022-11-14T23:46:04;75.45;;;32.72;;